Time;durP1;ratioP1;P1;durP2;ratioP2;P2;SDS_P1;SDS_P2;PMS_P1;PMS_P2;Temp;Humidity;BMP_temperature;BMP_pressure;BME280_temperature;BME280_humidity;BME280_pressure;Samples;Min_cycle;Max_cycle;Signal;HPM_P1;HPM_P2
2022/01/28 13:46:34;;;;;;;6.68;2.40;;;;;;;;;;6156193;23;20042;-70
2022/01/28 13:48:59;;;;;;;8.77;3.75;;;;;;;;;;6156135;23;20009;-70
2022/01/28 13:51:26;;;;;;;4.15;2.35;;;;;;;;;;6155967;23;19994;-70
2022/01/28 13:56:30;;;;;;;6.15;3.10;;;;;;;;;;6155955;23;20002;-70
2022/01/28 13:58:56;;;;;;;8.68;4.57;;;;;;;;;;6129794;23;20445;-70
2022/01/28 14:01:27;;;;;;;6.38;3.22;;;;;;;;;;6129836;23;20021;-70
2022/01/28 14:03:56;;;;;;;5.25;2.95;;;;;;;;;;6156678;23;20005;-70
2022/01/28 14:06:23;;;;;;;7.60;3.80;;;;;;;;;;6155861;23;19994;-70
2022/01/28 14:08:54;;;;;;;6.88;3.80;;;;;;;;;;6156201;23;20093;-70
2022/01/28 14:11:21;;;;;;;6.70;3.63;;;;;;;;;;6130124;23;20070;-70
2022/01/28 14:14:05;;;;;;;17.65;9.25;;;;;;;;;;6156375;23;20010;-69
2022/01/28 14:16:32;;;;;;;21.77;10.82;;;;;;;;;;6129702;23;20009;-69
2022/01/28 14:18:58;;;;;;;11.02;4.97;;;;;;;;;;6155982;23;19998;-70
2022/01/28 14:21:25;;;;;;;5.25;2.88;;;;;;;;;;6155924;23;20033;-70
2022/01/28 14:23:51;;;;;;;8.68;4.47;;;;;;;;;;6155970;23;20071;-70
2022/01/28 14:26:17;;;;;;;8.15;4.72;;;;;;;;;;6155247;23;20002;-70
2022/01/28 14:31:33;;;;;;;;;;;;;;;;;;6129979;23;20403;-70
2022/01/28 14:34:02;;;;;;;23.02;10.85;;;;;;;;;;6156381;23;19936;-65
2022/01/28 14:36:28;;;;;;;8.38;4.82;;;;;;;;;;6155825;23;20001;-66
2022/01/28 14:38:54;;;;;;;5.22;3.20;;;;;;;;;;6155740;23;20005;-65
2022/01/28 14:41:19;;;;;;;9.48;3.83;;;;;;;;;;6156126;23;20001;-67
2022/01/28 14:43:44;;;;;;;9.63;4.78;;;;;;;;;;6156312;23;20041;-69
2022/01/28 14:46:11;;;;;;;28.83;11.00;;;;;;;;;;6156031;23;20004;-68
2022/01/28 14:48:37;;;;;;;15.30;7.35;;;;;;;;;;6129789;23;20051;-69
2022/01/28 14:51:03;;;;;;;12.50;6.00;;;;;;;;;;6155231;23;20008;-69
2022/01/28 14:53:28;;;;;;;10.43;6.10;;;;;;;;;;6157053;23;20033;-65
2022/01/28 14:55:54;;;;;;;5.47;3.00;;;;;;;;;;6157948;23;20308;-68
2022/01/28 14:58:20;;;;;;;8.02;3.90;;;;;;;;;;6157885;23;20141;-67
2022/01/28 15:00:45;;;;;;;14.57;7.47;;;;;;;;;;6158027;23;20037;-68
2022/01/28 15:03:12;;;;;;;19.35;11.00;;;;;;;;;;6158448;23;20009;-68
2022/01/28 15:05:38;;;;;;;16.08;7.82;;;;;;;;;;6157977;23;19997;-68
2022/01/28 15:08:08;;;;;;;14.57;7.90;;;;;;;;;;6156849;23;20077;-68
2022/01/28 15:10:38;;;;;;;12.20;6.70;;;;;;;;;;6158120;23;20485;-68
2022/01/28 15:13:04;;;;;;;12.77;5.45;;;;;;;;;;6158205;23;20319;-68
2022/01/28 15:15:29;;;;;;;15.13;7.47;;;;;;;;;;6157706;23;20013;-68
2022/01/28 15:17:55;;;;;;;12.68;5.85;;;;;;;;;;6157469;23;20357;-69
2022/01/28 15:20:22;;;;;;;10.75;5.05;;;;;;;;;;6157617;23;20107;-68
2022/01/28 15:22:48;;;;;;;9.82;5.40;;;;;;;;;;6157394;23;20072;-68
2022/01/28 15:25:13;;;;;;;11.68;5.22;;;;;;;;;;6157382;23;20367;-69
2022/01/28 15:27:41;;;;;;;11.93;5.80;;;;;;;;;;6157374;23;20010;-68
2022/01/28 15:35:53;;;;;;;8.40;4.30;;;;;;;;;;6157390;23;20009;-69
2022/01/28 15:38:18;;;;;;;10.85;5.47;;;;;;;;;;6157451;23;20010;-68
2022/01/28 15:40:44;;;;;;;10.25;4.97;;;;;;;;;;6157297;23;20002;-69
2022/01/28 15:43:10;;;;;;;12.40;6.03;;;;;;;;;;6157001;23;20006;-69
2022/01/28 15:45:35;;;;;;;10.65;5.10;;;;;;;;;;6157110;23;20017;-68
2022/01/28 15:48:01;;;;;;;10.57;5.80;;;;;;;;;;6156745;23;20449;-68
2022/01/28 15:50:28;;;;;;;10.48;5.03;;;;;;;;;;6157181;23;20088;-68
2022/01/28 15:52:53;;;;;;;9.73;4.32;;;;;;;;;;6130955;23;20345;-68
2022/01/28 15:55:19;;;;;;;14.20;6.00;;;;;;;;;;6157205;23;19998;-68
2022/01/28 15:57:45;;;;;;;7.70;5.47;;;;;;;;;;6157105;23;20156;-68
2022/01/28 16:00:10;;;;;;;10.13;5.30;;;;;;;;;;6157260;23;20001;-68
2022/01/28 16:02:42;;;;;;;7.50;4.18;;;;;;;;;;6157161;23;20097;-68
2022/01/28 16:05:07;;;;;;;9.60;5.53;;;;;;;;;;6157159;23;20029;-69
2022/01/28 16:07:34;;;;;;;11.85;5.35;;;;;;;;;;6156399;23;20060;-69
2022/01/28 16:10:07;;;;;;;9.95;4.90;;;;;;;;;;6157066;23;20013;-68
2022/01/28 16:17:49;;;;;;;9.77;6.32;;;;;;;;;;6156984;23;20005;-69
2022/01/28 16:20:15;;;;;;;13.20;9.32;;;;;;;;;;6157159;23;20001;-68
2022/01/28 16:22:40;;;;;;;8.10;4.80;;;;;;;;;;6156906;23;20012;-68
2022/01/28 16:25:06;;;;;;;6.55;4.05;;;;;;;;;;6156858;23;20001;-68
2022/01/28 16:27:32;;;;;;;7.20;3.63;;;;;;;;;;6156850;23;20009;-68
2022/01/28 16:29:57;;;;;;;5.85;3.40;;;;;;;;;;6156730;23;20002;-68
2022/01/28 16:32:23;;;;;;;6.68;3.33;;;;;;;;;;6156717;23;20017;-68
2022/01/28 16:34:49;;;;;;;6.20;4.50;;;;;;;;;;6156824;23;20002;-68
2022/01/28 16:37:17;;;;;;;5.63;3.60;;;;;;;;;;6156841;23;20009;-68
2022/01/28 16:39:47;;;;;;;5.97;3.55;;;;;;;;;;6156881;23;20382;-69
2022/01/28 16:42:20;;;;;;;5.93;3.10;;;;;;;;;;6156278;23;20068;-68
2022/01/28 16:44:50;;;;;;;3.72;3.10;;;;;;;;;;6156847;23;20382;-69
2022/01/28 16:47:16;;;;;;;5.63;3.63;;;;;;;;;;6130621;23;20064;-68
2022/01/28 16:49:46;;;;;;;5.82;3.35;;;;;;;;;;6156906;23;20005;-68
2022/01/28 16:52:11;;;;;;;5.33;3.37;;;;;;;;;;6156786;23;20006;-68
2022/01/28 16:54:37;;;;;;;4.85;3.60;;;;;;;;;;6130502;23;20008;-69
2022/01/28 16:57:02;;;;;;;6.53;3.80;;;;;;;;;;6156545;23;20010;-68
2022/01/28 16:59:28;;;;;;;4.88;2.97;;;;;;;;;;6156656;23;20009;-68
2022/01/28 17:01:54;;;;;;;6.78;4.10;;;;;;;;;;6156482;23;20089;-68
2022/01/28 17:04:19;;;;;;;5.80;3.90;;;;;;;;;;6156533;23;20369;-68
2022/01/28 17:06:45;;;;;;;7.72;3.90;;;;;;;;;;6155911;23;20022;-68
2022/01/28 17:09:10;;;;;;;7.00;3.75;;;;;;;;;;6156829;23;20056;-68
2022/01/28 17:11:43;;;;;;;6.30;3.63;;;;;;;;;;6156570;23;20056;-68
2022/01/28 17:14:09;;;;;;;5.65;3.60;;;;;;;;;;6156490;23;20324;-68
2022/01/28 17:16:35;;;;;;;5.82;3.75;;;;;;;;;;6156042;23;19993;-68
2022/01/28 17:19:00;;;;;;;5.10;3.78;;;;;;;;;;6156392;23;20025;-68
2022/01/28 17:21:26;;;;;;;7.80;4.43;;;;;;;;;;6130206;23;19998;-68
2022/01/28 17:23:51;;;;;;;4.38;3.20;;;;;;;;;;6156435;23;20012;-68
2022/01/28 17:26:17;;;;;;;8.50;4.13;;;;;;;;;;6156279;23;20350;-68
2022/01/28 17:28:43;;;;;;;7.82;3.78;;;;;;;;;;6156268;23;20009;-68
2022/01/28 17:31:09;;;;;;;6.30;4.15;;;;;;;;;;6156270;23;20001;-68
2022/01/28 17:33:35;;;;;;;8.38;4.95;;;;;;;;;;6156283;23;20334;-68
2022/01/28 17:36:00;;;;;;;7.65;4.20;;;;;;;;;;6156363;23;20041;-68
2022/01/28 17:38:29;;;;;;;7.72;4.55;;;;;;;;;;6155925;23;20040;-68
2022/01/28 17:40:54;;;;;;;8.85;4.65;;;;;;;;;;6156026;23;19998;-68
2022/01/28 17:43:20;;;;;;;8.40;4.75;;;;;;;;;;6156029;23;20012;-68
2022/01/28 17:45:45;;;;;;;6.65;4.38;;;;;;;;;;6156179;23;19997;-68
2022/01/28 17:48:12;;;;;;;10.75;4.95;;;;;;;;;;6156288;23;20009;-68
2022/01/28 17:50:38;;;;;;;10.18;5.13;;;;;;;;;;6156177;23;20001;-68
2022/01/28 17:53:04;;;;;;;10.23;4.85;;;;;;;;;;6130044;23;20005;-68
2022/01/28 17:55:29;;;;;;;9.18;4.97;;;;;;;;;;6129878;23;20012;-68
2022/01/28 17:57:58;;;;;;;10.10;4.90;;;;;;;;;;6155998;23;20009;-68
2022/01/28 18:00:24;;;;;;;10.18;5.13;;;;;;;;;;6156066;23;20008;-68
2022/01/28 18:02:50;;;;;;;7.28;4.40;;;;;;;;;;6156117;23;20002;-68
2022/01/28 18:05:15;;;;;;;6.20;4.10;;;;;;;;;;6155846;23;19993;-68
2022/01/28 18:07:41;;;;;;;7.53;4.78;;;;;;;;;;6155700;23;20049;-68
2022/01/28 18:10:09;;;;;;;8.35;5.43;;;;;;;;;;6155868;23;20005;-68
2022/01/28 18:12:35;;;;;;;6.97;4.82;;;;;;;;;;6155820;23;20012;-68
2022/01/28 18:15:01;;;;;;;8.98;4.88;;;;;;;;;;6155399;23;20338;-68
2022/01/28 18:17:26;;;;;;;7.22;4.63;;;;;;;;;;6156228;23;20005;-68
2022/01/28 18:19:51;;;;;;;6.85;4.05;;;;;;;;;;6156271;23;20026;-68
2022/01/28 18:22:18;;;;;;;11.45;6.70;;;;;;;;;;6156391;23;20001;-68
2022/01/28 18:24:44;;;;;;;19.10;8.57;;;;;;;;;;6156069;23;20005;-68
2022/01/28 18:27:10;;;;;;;20.83;10.23;;;;;;;;;;6155928;23;20068;-68
2022/01/28 18:29:35;;;;;;;25.48;11.68;;;;;;;;;;6155841;23;20449;-68
2022/01/28 18:32:01;;;;;;;16.40;10.15;;;;;;;;;;6155470;23;20005;-68
2022/01/28 18:34:26;;;;;;;10.13;5.40;;;;;;;;;;6129752;23;20005;-68
2022/01/28 18:36:52;;;;;;;8.73;6.45;;;;;;;;;;6155679;23;20316;-68
2022/01/28 18:39:17;;;;;;;8.00;4.45;;;;;;;;;;6155639;23;19998;-68
2022/01/28 18:41:46;;;;;;;8.40;4.20;;;;;;;;;;6155595;23;20001;-68
2022/01/28 18:44:19;;;;;;;4.75;2.75;;;;;;;;;;6155254;23;20008;-68
2022/01/28 18:47:03;;;;;;;3.10;2.30;;;;;;;;;;6155840;23;20485;-68
2022/01/28 18:49:30;;;;;;;3.80;2.28;;;;;;;;;;6155740;23;20001;-70
2022/01/28 18:51:56;;;;;;;2.70;2.15;;;;;;;;;;6155424;23;20024;-69
2022/01/28 18:54:21;;;;;;;2.92;2.60;;;;;;;;;;6155304;23;20482;-69
2022/01/28 18:56:46;;;;;;;2.85;2.15;;;;;;;;;;6155313;23;20012;-69
2022/01/28 18:59:15;;;;;;;2.83;1.95;;;;;;;;;;6155919;23;20009;-70
2022/01/28 19:01:47;;;;;;;11.00;4.50;;;;;;;;;;6155591;23;20052;-70
2022/01/28 19:04:14;;;;;;;10.60;4.20;;;;;;;;;;6105149;23;20446;-70
2022/01/28 19:06:39;;;;;;;5.80;3.35;;;;;;;;;;6154993;23;20029;-68
2022/01/28 19:09:06;;;;;;;7.25;4.70;;;;;;;;;;6129923;23;20002;-70
2022/01/28 19:11:37;;;;;;;4.05;2.58;;;;;;;;;;6155732;23;20036;-70
2022/01/28 19:14:05;;;;;;;7.63;3.90;;;;;;;;;;6155530;23;20006;-69
2022/01/28 19:16:30;;;;;;;8.88;4.38;;;;;;;;;;6155421;23;19993;-69
2022/01/28 19:18:56;;;;;;;8.70;3.90;;;;;;;;;;6155354;23;20040;-68
2022/01/28 19:21:21;;;;;;;4.57;3.33;;;;;;;;;;6155382;23;20000;-68
2022/01/28 19:23:46;;;;;;;4.55;3.03;;;;;;;;;;6154938;23;20072;-68
2022/01/28 19:26:12;;;;;;;6.82;4.00;;;;;;;;;;6155513;23;20005;-68
2022/01/28 19:28:37;;;;;;;5.60;3.40;;;;;;;;;;6155351;23;20006;-68
2022/01/28 19:31:03;;;;;;;5.15;3.42;;;;;;;;;;6155280;23;20378;-68
2022/01/28 19:33:29;;;;;;;8.20;5.05;;;;;;;;;;6129275;23;20010;-69
2022/01/28 19:35:54;;;;;;;7.15;3.70;;;;;;;;;;6155355;23;20013;-69
2022/01/28 19:38:20;;;;;;;12.02;5.63;;;;;;;;;;6155543;23;20006;-69
2022/01/28 19:40:49;;;;;;;23.73;10.68;;;;;;;;;;6157261;23;20128;-69
2022/01/28 19:43:14;;;;;;;8.70;5.30;;;;;;;;;;6156962;23;20037;-61
2022/01/28 19:45:43;;;;;;;10.23;5.13;;;;;;;;;;6156868;23;20357;-67
2022/01/28 19:48:08;;;;;;;11.18;5.93;;;;;;;;;;6157228;23;20009;-70
2022/01/28 19:50:34;;;;;;;11.65;5.93;;;;;;;;;;6157216;23;20049;-70
2022/01/28 19:53:00;;;;;;;12.48;5.47;;;;;;;;;;6157211;23;20060;-70
2022/01/28 19:55:25;;;;;;;20.10;6.63;;;;;;;;;;6157082;23;20426;-70
2022/01/28 19:57:50;;;;;;;17.65;6.68;;;;;;;;;;6156817;23;20010;-70
2022/01/28 20:00:16;;;;;;;7.97;4.82;;;;;;;;;;6131070;23;20001;-70
2022/01/28 20:02:42;;;;;;;15.68;6.15;;;;;;;;;;6157034;23;20092;-70
2022/01/28 20:05:08;;;;;;;19.48;6.38;;;;;;;;;;6157048;23;20422;-70
2022/01/28 20:07:33;;;;;;;12.35;4.97;;;;;;;;;;6130192;23;20422;-70
2022/01/28 20:09:59;;;;;;;14.95;7.95;;;;;;;;;;6156872;23;20006;-70
2022/01/28 20:12:25;;;;;;;13.07;5.38;;;;;;;;;;6156818;23;20077;-70
2022/01/28 20:14:51;;;;;;;26.10;8.55;;;;;;;;;;6157255;23;20005;-70
2022/01/28 20:17:17;;;;;;;11.50;4.70;;;;;;;;;;6156929;23;20009;-70
2022/01/28 20:19:42;;;;;;;16.05;5.30;;;;;;;;;;6130870;23;20426;-70
2022/01/28 20:22:08;;;;;;;12.23;5.25;;;;;;;;;;6156671;23;20061;-69
2022/01/28 20:24:33;;;;;;;14.82;4.93;;;;;;;;;;6156838;23;20008;-69
2022/01/28 20:26:58;;;;;;;12.63;6.85;;;;;;;;;;6156776;23;20190;-70
2022/01/28 20:29:24;;;;;;;6.07;4.07;;;;;;;;;;6156644;23;20005;-70
2022/01/28 20:31:50;;;;;;;11.45;4.60;;;;;;;;;;6156425;23;20009;-69
2022/01/28 20:34:16;;;;;;;14.60;5.60;;;;;;;;;;6156900;23;20426;-70
2022/01/28 20:36:41;;;;;;;18.38;6.45;;;;;;;;;;6156808;23;20064;-70
2022/01/28 20:39:07;;;;;;;12.57;4.55;;;;;;;;;;6157011;23;20005;-70
2022/01/28 20:41:32;;;;;;;9.35;3.55;;;;;;;;;;6130688;23;20096;-70
2022/01/28 20:43:58;;;;;;;11.98;6.30;;;;;;;;;;6156570;23;19994;-69
2022/01/28 20:46:23;;;;;;;15.75;8.90;;;;;;;;;;6156555;23;20177;-69
2022/01/28 20:48:49;;;;;;;10.45;4.57;;;;;;;;;;6156482;23;20002;-69
2022/01/28 20:51:15;;;;;;;11.38;4.35;;;;;;;;;;6155704;23;20006;-69
2022/01/28 20:53:40;;;;;;;7.95;3.65;;;;;;;;;;6156863;23;20036;-69
2022/01/28 20:56:07;;;;;;;12.70;4.43;;;;;;;;;;6156737;23;20010;-69
2022/01/28 20:58:32;;;;;;;11.27;4.45;;;;;;;;;;6156545;23;20085;-69
2022/01/28 21:00:58;;;;;;;13.10;4.55;;;;;;;;;;6156347;23;20049;-70
2022/01/28 21:03:23;;;;;;;13.15;6.25;;;;;;;;;;6156529;23;20076;-69
2022/01/28 21:05:49;;;;;;;27.70;13.30;;;;;;;;;;6156544;23;20005;-69
2022/01/28 21:08:15;;;;;;;21.88;9.48;;;;;;;;;;6156194;23;20027;-70
2022/01/28 21:10:41;;;;;;;20.75;7.28;;;;;;;;;;6155075;23;20096;-70
2022/01/28 21:13:06;;;;;;;21.77;7.28;;;;;;;;;;6156880;23;20401;-70
2022/01/28 21:15:32;;;;;;;14.60;5.28;;;;;;;;;;6156487;23;20056;-69
2022/01/28 21:17:58;;;;;;;13.77;5.22;;;;;;;;;;6156260;23;19998;-69
2022/01/28 21:20:23;;;;;;;14.90;6.35;;;;;;;;;;6156238;23;20013;-70
2022/01/28 21:22:49;;;;;;;15.82;5.95;;;;;;;;;;6156181;23;20008;-69
2022/01/28 21:25:14;;;;;;;26.92;8.10;;;;;;;;;;6130267;23;20367;-69
2022/01/28 21:27:40;;;;;;;18.05;6.22;;;;;;;;;;6156049;23;20001;-71
2022/01/28 21:30:06;;;;;;;17.10;6.60;;;;;;;;;;6156141;23;20334;-69
2022/01/28 21:32:31;;;;;;;19.65;6.72;;;;;;;;;;6155954;23;20039;-69
2022/01/28 21:34:57;;;;;;;27.30;11.65;;;;;;;;;;6155822;23;20006;-69
2022/01/28 21:37:23;;;;;;;28.98;9.70;;;;;;;;;;6156191;23;20152;-69
2022/01/28 21:39:48;;;;;;;26.40;7.60;;;;;;;;;;6156287;23;20001;-70
2022/01/28 21:42:14;;;;;;;20.42;7.28;;;;;;;;;;6155838;23;20422;-70
2022/01/28 21:44:39;;;;;;;10.65;4.70;;;;;;;;;;6130077;23;20037;-70
2022/01/28 21:47:05;;;;;;;20.73;6.70;;;;;;;;;;6156304;23;20033;-70
2022/01/28 21:49:30;;;;;;;22.35;8.80;;;;;;;;;;6129733;23;20037;-69
2022/01/28 21:51:56;;;;;;;35.83;15.25;;;;;;;;;;6155913;23;20006;-69
2022/01/28 21:54:21;;;;;;;23.35;11.18;;;;;;;;;;6155881;23;20365;-69
2022/01/28 21:56:46;;;;;;;21.17;7.50;;;;;;;;;;6155851;23;20005;-69
2022/01/28 21:59:12;;;;;;;20.88;7.70;;;;;;;;;;6156025;23;20061;-69
2022/01/28 22:01:38;;;;;;;13.50;5.28;;;;;;;;;;6155724;23;20456;-69
2022/01/28 22:04:10;;;;;;;10.93;5.07;;;;;;;;;;6155391;23;20008;-69
2022/01/28 22:06:35;;;;;;;13.63;5.32;;;;;;;;;;6127912;23;20018;-69
2022/01/28 22:09:01;;;;;;;20.13;9.65;;;;;;;;;;6129824;23;20473;-69
2022/01/28 22:11:26;;;;;;;16.10;8.50;;;;;;;;;;6155533;23;20005;-69
2022/01/28 22:13:52;;;;;;;15.50;7.20;;;;;;;;;;6155527;23;20434;-69
2022/01/28 22:16:18;;;;;;;24.52;8.02;;;;;;;;;;6155267;23;20006;-69
2022/01/28 22:18:43;;;;;;;18.55;6.20;;;;;;;;;;6155889;23;20009;-69
2022/01/28 22:21:09;;;;;;;14.02;5.53;;;;;;;;;;6155742;23;20012;-69
2022/01/28 22:23:34;;;;;;;12.80;4.72;;;;;;;;;;6155799;23;20124;-69
2022/01/28 22:26:02;;;;;;;9.77;4.32;;;;;;;;;;6155703;23;19998;-69
2022/01/28 22:28:31;;;;;;;9.93;5.57;;;;;;;;;;6155912;23;20009;-70
2022/01/28 22:30:56;;;;;;;9.23;4.60;;;;;;;;;;6155718;23;20007;-69
2022/01/28 22:33:21;;;;;;;9.40;4.63;;;;;;;;;;6155286;23;20006;-69
2022/01/28 22:35:50;;;;;;;9.23;5.13;;;;;;;;;;6155759;23;20001;-70
2022/01/28 22:38:15;;;;;;;10.73;5.55;;;;;;;;;;6155633;23;20013;-69
2022/01/28 22:40:40;;;;;;;21.58;7.60;;;;;;;;;;6155727;23;20002;-70
2022/01/28 22:43:06;;;;;;;8.13;4.93;;;;;;;;;;6155510;23;20006;-70
2022/01/28 22:45:31;;;;;;;11.02;6.20;;;;;;;;;;6155812;23;19998;-70
2022/01/28 22:47:57;;;;;;;8.65;5.00;;;;;;;;;;6155787;23;20084;-70
2022/01/28 22:50:23;;;;;;;11.20;6.13;;;;;;;;;;6155556;23;20001;-70
2022/01/28 22:52:48;;;;;;;11.95;5.50;;;;;;;;;;6155849;23;20338;-70
2022/01/28 22:55:14;;;;;;;13.35;5.68;;;;;;;;;;6129802;23;20013;-70
2022/01/28 22:57:39;;;;;;;13.10;6.13;;;;;;;;;;6155483;23;20458;-70
2022/01/28 23:00:07;;;;;;;13.80;5.60;;;;;;;;;;6155806;23;20012;-70
2022/01/28 23:03:04;;;;;;;9.70;4.95;;;;;;;;;;6155842;23;20024;-70
2022/01/28 23:05:30;;;;;;;10.50;5.07;;;;;;;;;;6155803;23;20006;-70
2022/01/28 23:07:56;;;;;;;7.25;4.07;;;;;;;;;;6129339;23;20469;-70
2022/01/28 23:10:21;;;;;;;8.30;4.43;;;;;;;;;;6155788;23;20089;-70
2022/01/28 23:12:47;;;;;;;12.32;5.10;;;;;;;;;;6156080;23;20033;-67
2022/01/28 23:15:14;;;;;;;9.20;4.57;;;;;;;;;;6157149;23;20006;-68
2022/01/28 23:17:39;;;;;;;11.10;5.20;;;;;;;;;;6157442;23;20044;-68
2022/01/28 23:20:06;;;;;;;9.70;5.00;;;;;;;;;;6157694;23;20009;-67
2022/01/28 23:22:53;;;;;;;10.25;4.40;;;;;;;;;;6157572;23;20044;-67
2022/01/28 23:25:29;;;;;;;8.90;4.40;;;;;;;;;;6108759;23;20013;-67
2022/01/28 23:27:54;;;;;;;9.00;5.00;;;;;;;;;;6107064;23;20006;-70
2022/01/28 23:30:20;;;;;;;9.38;4.95;;;;;;;;;;6157633;23;20009;-70
2022/01/28 23:32:45;;;;;;;5.97;4.30;;;;;;;;;;6157649;23;20014;-70
2022/01/28 23:35:11;;;;;;;10.93;5.10;;;;;;;;;;6157592;23;20001;-69
2022/01/28 23:37:47;;;;;;;6.28;4.07;;;;;;;;;;6157487;23;20005;-70
2022/01/28 23:40:20;;;;;;;9.73;4.60;;;;;;;;;;6108101;23;20016;-71
2022/01/28 23:42:46;;;;;;;6.47;4.35;;;;;;;;;;6157272;23;20088;-70
2022/01/28 23:45:11;;;;;;;9.98;4.78;;;;;;;;;;6131619;23;20049;-70
2022/01/28 23:47:37;;;;;;;7.70;4.13;;;;;;;;;;6157758;23;20013;-70
2022/01/28 23:50:03;;;;;;;7.03;3.85;;;;;;;;;;6157803;23;20001;-68
2022/01/28 23:52:28;;;;;;;6.22;4.30;;;;;;;;;;6131665;23;20009;-67
2022/01/28 23:54:54;;;;;;;8.18;4.55;;;;;;;;;;6157503;23;20012;-68
2022/01/28 23:57:19;;;;;;;6.10;3.80;;;;;;;;;;6157919;23;20016;-68
2022/01/28 23:59:45;;;;;;;7.10;3.83;;;;;;;;;;6157654;23;20303;-68
